Time;durP1;ratioP1;P1;durP2;ratioP2;P2;SDS_P1;SDS_P2;PMS_P1;PMS_P2;Temp;Humidity;BMP_temperature;BMP_pressure;BME280_temperature;BME280_humidity;BME280_pressure;Samples;Min_cycle;Max_cycle;Signal;HPM_P1;HPM_P2
2022/12/12 00:00:48;;;;;;;;;;;-2.60;99.90;;;;;;5030997;28;19921;-57
2022/12/12 00:03:13;;;;;;;;;;;-2.60;99.90;;;;;;5031371;28;19916;-60
2022/12/12 00:05:39;;;;;;;;;;;-2.60;99.90;;;;;;5016964;28;20418;-61
2022/12/12 00:08:04;;;;;;;;;;;-2.60;99.90;;;;;;5033601;28;20004;-59
2022/12/12 00:10:30;;;;;;;;;;;-2.60;99.90;;;;;;5019263;28;20387;-60
2022/12/12 00:12:55;;;;;;;;;;;-2.60;99.90;;;;;;5033489;28;19956;-60
2022/12/12 00:15:21;;;;;;;;;;;-2.60;99.90;;;;;;5033961;28;19936;-57
2022/12/12 00:17:46;;;;;;;;;;;-2.60;99.90;;;;;;5019186;28;19928;-58
2022/12/12 00:20:12;;;;;;;;;;;-2.60;99.90;;;;;;5025937;28;19999;-60
2022/12/12 00:22:37;;;;;;;;;;;-2.60;99.90;;;;;;5034981;28;20298;-60
2022/12/12 00:25:03;;;;;;;;;;;-2.60;99.90;;;;;;5026845;28;19913;-59
2022/12/12 00:27:30;;;;;;;;;;;-2.60;99.90;;;;;;5017224;28;19925;-60
2022/12/12 00:29:55;;;;;;;;;;;-2.60;99.90;;;;;;5033966;28;20373;-58
2022/12/12 00:32:20;;;;;;;;;;;-2.60;99.90;;;;;;5036087;28;19979;-61
2022/12/12 00:34:46;;;;;;;;;;;-2.60;99.90;;;;;;5037996;28;20312;-61
2022/12/12 00:37:11;;;;;;;;;;;-2.60;99.90;;;;;;5036330;28;20276;-58
2022/12/12 00:39:37;;;;;;;;;;;-2.60;99.90;;;;;;5028625;28;19918;-59
2022/12/12 00:42:02;;;;;;;;;;;-2.60;99.90;;;;;;5030402;28;19952;-60
2022/12/12 00:44:28;;;;;;;;;;;-2.70;99.90;;;;;;5029364;28;19913;-59
2022/12/12 00:46:53;;;;;;;;;;;-2.70;99.90;;;;;;5026117;28;19995;-60
2022/12/12 00:49:19;;;;;;;;;;;-2.70;99.90;;;;;;5022788;28;19913;-60
2022/12/12 00:51:45;;;;;;;;;;;-2.80;99.90;;;;;;5022030;28;19917;-60
2022/12/12 00:54:10;;;;;;;;;;;-2.80;99.90;;;;;;5012509;28;19942;-60
2022/12/12 00:56:35;;;;;;;;;;;-2.80;99.90;;;;;;5029746;28;19959;-60
2022/12/12 00:59:02;;;;;;;;;;;-2.80;99.90;;;;;;5029777;28;19909;-58
2022/12/12 01:01:29;;;;;;;;;;;-2.80;99.90;;;;;;5029713;28;19945;-59
2022/12/12 01:03:55;;;;;;;;;;;-2.90;99.90;;;;;;5024370;28;20390;-60
2022/12/12 01:06:21;;;;;;;;;;;-2.90;99.90;;;;;;5030683;28;19920;-60
2022/12/12 01:08:46;;;;;;;;;;;-2.90;99.90;;;;;;5021072;28;19918;-61
2022/12/12 01:11:13;;;;;;;;;;;-2.90;99.90;;;;;;5023436;28;19921;-59
2022/12/12 01:13:39;;;;;;;;;;;-2.90;99.90;;;;;;5025963;28;19913;-59
2022/12/12 01:16:05;;;;;;;;;;;-3.00;99.90;;;;;;5033265;28;20394;-60
2022/12/12 01:18:31;;;;;;;;;;;-3.00;99.90;;;;;;5018154;28;19972;-59
2022/12/12 01:20:56;;;;;;;;;;;-3.00;99.90;;;;;;5029536;28;19913;-60
2022/12/12 01:23:21;;;;;;;;;;;-3.00;99.90;;;;;;5023063;28;20375;-59
2022/12/12 01:25:47;;;;;;;;;;;-3.10;99.90;;;;;;5031315;28;19956;-60
2022/12/12 01:28:13;;;;;;;;;;;-3.10;99.90;;;;;;5022850;28;19913;-59
2022/12/12 01:30:39;;;;;;;;;;;-3.20;99.90;;;;;;5024578;28;19966;-59
2022/12/12 01:33:04;;;;;;;;;;;-3.20;99.90;;;;;;5022682;28;20000;-57
2022/12/12 01:35:30;;;;;;;;;;;-3.30;99.90;;;;;;5017856;28;19913;-61
2022/12/12 01:37:56;;;;;;;;;;;-3.30;99.90;;;;;;5036257;28;20284;-59
2022/12/12 01:40:23;;;;;;;;;;;-3.30;99.90;;;;;;5033134;28;19995;-60
2022/12/12 01:42:49;;;;;;;;;;;-3.40;99.90;;;;;;5021934;28;19994;-60
2022/12/12 01:45:33;;;;;;;;;;;-3.40;99.90;;;;;;5036740;28;19953;-61
2022/12/12 01:47:58;;;;;;;;;;;-3.40;99.90;;;;;;5017681;28;19917;-61
2022/12/12 01:50:24;;;;;;;;;;;-3.50;99.90;;;;;;5027478;28;19966;-61
2022/12/12 01:52:49;;;;;;;;;;;-3.50;99.90;;;;;;5028676;28;19920;-59
2022/12/12 01:55:19;;;;;;;;;;;-3.50;99.90;;;;;;5029140;28;19909;-59
2022/12/12 01:57:46;;;;;;;;;;;-3.50;99.90;;;;;;5028463;28;20384;-61
2022/12/12 02:00:12;;;;;;;;;;;-3.60;99.90;;;;;;5008898;28;19921;-61
2022/12/12 02:02:38;;;;;;;;;;;-3.60;99.90;;;;;;5026528;28;19913;-60
2022/12/12 02:05:13;;;;;;;;;;;-3.70;99.90;;;;;;5028167;28;19924;-59
2022/12/12 02:07:38;;;;;;;;;;;-3.70;99.90;;;;;;5028820;28;19917;-60
2022/12/12 02:10:04;;;;;;;;;;;-3.70;99.90;;;;;;5028961;28;19909;-58
2022/12/12 02:12:30;;;;;;;;;;;-3.80;99.90;;;;;;5028846;28;19923;-59
2022/12/12 02:14:55;;;;;;;;;;;-3.70;99.90;;;;;;5028535;28;20012;-60
2022/12/12 02:17:33;;;;;;;;;;;-3.80;99.90;;;;;;5028922;28;20380;-61
2022/12/12 02:20:13;;;;;;;;;;;-3.80;99.90;;;;;;5021605;28;19909;-60
2022/12/12 02:22:57;;;;;;;;;;;-3.80;99.90;;;;;;5029059;28;19909;-60
2022/12/12 02:25:26;;;;;;;;;;;-3.80;99.90;;;;;;5028812;28;20435;-60
2022/12/12 02:28:16;;;;;;;;;;;-3.80;99.90;;;;;;5003003;28;20372;-60
2022/12/12 02:31:00;;;;;;;;;;;-3.80;99.90;;;;;;5026023;28;19928;-61
2022/12/12 02:33:32;;;;;;;;;;;-3.80;99.90;;;;;;5026273;28;20386;-60
2022/12/12 02:36:05;;;;;;;;;;;-3.80;99.90;;;;;;5022633;28;20374;-61
2022/12/12 02:38:36;;;;;;;;;;;-3.90;99.90;;;;;;5007951;28;19936;-60
2022/12/12 02:41:07;;;;;;;;;;;-3.90;99.90;;;;;;5028767;28;19943;-61
2022/12/12 02:43:37;;;;;;;;;;;-3.90;99.90;;;;;;5029351;28;19939;-61
2022/12/12 02:46:05;;;;;;;;;;;-3.90;99.90;;;;;;5027009;28;19932;-61
2022/12/12 02:48:31;;;;;;;;;;;-4.00;99.90;;;;;;5074496;22;19955;-59
2022/12/12 02:50:57;;;;;;;;;;;-4.00;99.90;;;;;;5049895;28;19917;-58
2022/12/12 02:53:23;;;;;;;;;;;-4.00;99.90;;;;;;5052216;28;20035;-57
2022/12/12 02:55:49;;;;;;;;;;;-4.10;99.90;;;;;;5055988;28;20334;-59
2022/12/12 02:58:15;;;;;;;;;;;-4.10;99.90;;;;;;5049285;28;20346;-59
2022/12/12 03:00:50;;;;;;;;;;;-4.20;99.90;;;;;;5045454;28;19913;-57
2022/12/12 03:09:06;;;;;;;;;;;-4.20;99.90;;;;;;5046491;28;20295;-59
2022/12/12 03:11:37;;;;;;;;;;;-4.20;99.90;;;;;;5052364;28;19909;-57
2022/12/12 03:14:13;;;;;;;;;;;-4.20;99.90;;;;;;5048555;28;20376;-59
2022/12/12 03:16:54;;;;;;;;;;;-4.30;99.90;;;;;;5051324;28;20230;-58
2022/12/12 03:19:19;;;;;;;;;;;-4.30;99.90;;;;;;5047864;28;19912;-58
2022/12/12 03:21:50;;;;;;;;;;;-4.40;99.90;;;;;;5050972;28;20276;-58
2022/12/12 03:24:21;;;;;;;;;;;-4.40;99.90;;;;;;5046975;28;19909;-58
2022/12/12 03:26:55;;;;;;;;;;;-4.40;99.90;;;;;;5049732;28;20003;-58
2022/12/12 03:29:25;;;;;;;;;;;-4.50;99.90;;;;;;5051706;28;19913;-57
2022/12/12 03:31:54;;;;;;;;;;;-4.40;99.90;;;;;;5045805;28;20338;-59
2022/12/12 03:34:21;;;;;;;;;;;-4.50;99.90;;;;;;5046482;28;19912;-58
2022/12/12 03:36:47;;;;;;;;;;;-4.40;99.90;;;;;;5049164;28;19924;-58
2022/12/12 03:39:16;;;;;;;;;;;-4.40;99.90;;;;;;5042923;28;19913;-58
2022/12/12 03:41:46;;;;;;;;;;;-4.50;99.90;;;;;;5048530;28;19966;-59
2022/12/12 03:44:21;;;;;;;;;;;-4.50;99.90;;;;;;5051173;28;19917;-59
2022/12/12 03:46:50;;;;;;;;;;;-4.50;99.90;;;;;;5051304;28;19920;-59
2022/12/12 03:49:21;;;;;;;;;;;-4.50;99.90;;;;;;5051715;28;19924;-59
2022/12/12 03:51:48;;;;;;;;;;;-4.60;99.90;;;;;;5050093;28;19909;-56
2022/12/12 03:54:21;;;;;;;;;;;-4.60;99.90;;;;;;5050689;28;19928;-59
2022/12/12 03:57:04;;;;;;;;;;;-4.60;99.90;;;;;;5064508;28;19919;-59
2022/12/12 03:59:43;;;;;;;;;;;-4.60;99.90;;;;;;5045703;28;20366;-58
2022/12/12 04:02:21;;;;;;;;;;;-4.60;99.90;;;;;;5051276;28;20007;-57
2022/12/12 04:04:52;;;;;;;;;;;-4.60;99.90;;;;;;5042044;28;19916;-57
2022/12/12 04:07:28;;;;;;;;;;;-4.60;99.90;;;;;;5050079;28;19928;-58
2022/12/12 04:12:59;;;;;;;;;;;-4.60;99.90;;;;;;5049198;28;20400;-56
2022/12/12 04:15:46;;;;;;;;;;;-4.70;99.90;;;;;;5050212;28;20059;-57
2022/12/12 04:18:24;;;;;;;;;;;-4.80;99.90;;;;;;5050237;28;19917;-57
2022/12/12 04:24:09;;;;;;;;;;;-4.80;99.90;;;;;;5049165;28;20360;-57
2022/12/12 04:26:40;;;;;;;;;;;-4.80;99.90;;;;;;5050309;28;19931;-58
2022/12/12 04:29:10;;;;;;;;;;;-4.80;99.90;;;;;;5047933;28;19913;-55
2022/12/12 04:31:38;;;;;;;;;;;-4.90;99.90;;;;;;5048895;28;20383;-57
2022/12/12 04:34:06;;;;;;;;;;;-4.90;99.90;;;;;;5045245;28;19917;-56
2022/12/12 04:36:33;;;;;;;;;;;-4.90;99.90;;;;;;5041068;28;19948;-57
2022/12/12 04:38:59;;;;;;;;;;;-4.90;99.90;;;;;;5050388;28;19967;-56
2022/12/12 04:41:25;;;;;;;;;;;-4.90;99.90;;;;;;5047884;28;19912;-57
2022/12/12 04:43:52;;;;;;;;;;;-4.90;99.90;;;;;;5038868;28;19979;-60
2022/12/12 04:46:20;;;;;;;;;;;-4.90;99.90;;;;;;5048077;28;19972;-57
2022/12/12 04:48:49;;;;;;;;;;;-4.90;99.90;;;;;;5046332;28;19921;-59
2022/12/12 04:51:17;;;;;;;;;;;-4.90;99.90;;;;;;5041835;28;20024;-55
2022/12/12 04:53:45;;;;;;;;;;;-4.90;99.90;;;;;;5047178;28;20438;-56
2022/12/12 04:56:12;;;;;;;;;;;-4.90;99.90;;;;;;5048716;28;19909;-57
2022/12/12 04:58:39;;;;;;;;;;;-4.90;99.90;;;;;;5045484;28;19908;-58
2022/12/12 05:01:10;;;;;;;;;;;-4.90;99.90;;;;;;5048885;28;20417;-55
2022/12/12 05:03:40;;;;;;;;;;;-5.00;99.90;;;;;;5044385;28;19923;-54
2022/12/12 05:06:08;;;;;;;;;;;-4.90;99.90;;;;;;5049611;28;19955;-54
2022/12/12 05:08:37;;;;;;;;;;;-4.90;99.90;;;;;;5048369;28;19913;-56
2022/12/12 05:11:03;;;;;;;;;;;-4.90;99.90;;;;;;5048253;28;19913;-57
2022/12/12 05:13:30;;;;;;;;;;;-4.90;99.90;;;;;;5047477;28;19919;-58
2022/12/12 05:15:57;;;;;;;;;;;-4.90;99.90;;;;;;5048356;28;19920;-58
2022/12/12 05:18:23;;;;;;;;;;;-4.90;99.90;;;;;;5046476;28;19999;-59
2022/12/12 05:20:48;;;;;;;;;;;-4.90;99.90;;;;;;5049258;28;20003;-57
2022/12/12 05:23:14;;;;;;;;;;;-4.90;99.90;;;;;;5046369;28;19916;-58
2022/12/12 05:25:39;;;;;;;;;;;-4.90;99.90;;;;;;5048130;28;20071;-54
2022/12/12 05:28:05;;;;;;;;;;;-4.90;99.90;;;;;;5049014;28;19927;-58
2022/12/12 05:30:30;;;;;;;;;;;-4.90;99.90;;;;;;5047335;28;19913;-54
2022/12/12 05:32:56;;;;;;;;;;;-4.90;99.90;;;;;;5044496;28;19913;-57
2022/12/12 05:35:21;;;;;;;;;;;-4.90;99.90;;;;;;5046483;28;19916;-57
2022/12/12 05:37:47;;;;;;;;;;;-5.00;99.90;;;;;;5049271;28;19917;-59
2022/12/12 05:40:13;;;;;;;;;;;-5.00;99.90;;;;;;5046164;28;19920;-57
2022/12/12 05:42:38;;;;;;;;;;;-5.00;99.90;;;;;;5041583;28;19921;-57
2022/12/12 05:45:05;;;;;;;;;;;-5.00;99.90;;;;;;5044332;28;19967;-57
2022/12/12 05:47:30;;;;;;;;;;;-5.10;99.90;;;;;;5047518;28;20282;-58
2022/12/12 05:49:55;;;;;;;;;;;-5.10;99.90;;;;;;5043944;28;19913;-57
2022/12/12 05:52:21;;;;;;;;;;;-5.10;99.90;;;;;;5041478;28;19913;-57
2022/12/12 05:54:46;;;;;;;;;;;-5.10;99.90;;;;;;5046793;28;19924;-57
2022/12/12 05:57:12;;;;;;;;;;;-5.10;99.90;;;;;;5047683;28;19981;-55
2022/12/12 05:59:37;;;;;;;;;;;-5.20;99.90;;;;;;5041592;28;19985;-56
2022/12/12 06:02:03;;;;;;;;;;;-5.30;99.90;;;;;;5049646;28;20440;-58
2022/12/12 06:04:28;;;;;;;;;;;-5.30;99.90;;;;;;5044261;28;20378;-58
2022/12/12 06:06:54;;;;;;;;;;;-5.30;99.90;;;;;;5049149;28;19924;-57
2022/12/12 06:09:19;;;;;;;;;;;-5.30;99.90;;;;;;5048684;28;20393;-57
2022/12/12 06:11:45;;;;;;;;;;;-5.30;99.90;;;;;;5049063;28;20003;-57
2022/12/12 06:14:10;;;;;;;;;;;-5.40;99.90;;;;;;5049109;28;19993;-57
2022/12/12 06:16:36;;;;;;;;;;;-5.40;99.90;;;;;;5048543;28;19920;-55
2022/12/12 06:19:01;;;;;;;;;;;-5.40;99.90;;;;;;5046518;28;19909;-57
2022/12/12 06:21:27;;;;;;;;;;;-5.40;99.90;;;;;;5048202;28;20377;-57
2022/12/12 06:23:52;;;;;;;;;;;-5.40;99.90;;;;;;5050864;28;19952;-57
2022/12/12 06:26:19;;;;;;;;;;;-5.40;99.90;;;;;;5051981;28;20050;-55
2022/12/12 06:28:44;;;;;;;;;;;-5.50;99.90;;;;;;5052713;28;19952;-56
2022/12/12 06:31:10;;;;;;;;;;;-5.50;99.90;;;;;;5052939;28;19968;-57
2022/12/12 06:33:37;;;;;;;;;;;-5.50;99.90;;;;;;5047398;28;20370;-58
2022/12/12 06:36:13;;;;;;;;;;;-5.50;99.90;;;;;;5044967;28;20362;-57
2022/12/12 06:38:39;;;;;;;;;;;-5.50;99.90;;;;;;5050100;28;19980;-56
2022/12/12 06:41:08;;;;;;;;;;;-5.50;99.90;;;;;;5051239;28;19913;-54
2022/12/12 06:43:34;;;;;;;;;;;-5.50;99.90;;;;;;5052404;28;19909;-57
2022/12/12 06:46:03;;;;;;;;;;;-5.50;99.90;;;;;;5045796;28;20318;-57
2022/12/12 06:48:29;;;;;;;;;;;-5.50;99.90;;;;;;5048750;28;19923;-57
2022/12/12 06:50:55;;;;;;;;;;;-5.50;99.90;;;;;;5052660;28;19912;-56
2022/12/12 06:53:20;;;;;;;;;;;-5.50;99.90;;;;;;5049781;28;19966;-57
2022/12/12 06:55:46;;;;;;;;;;;-5.40;99.90;;;;;;5044286;28;20067;-56
2022/12/12 06:58:11;;;;;;;;;;;-5.40;99.90;;;;;;5046884;28;20398;-57
2022/12/12 07:00:36;;;;;;;;;;;-5.40;99.90;;;;;;5049492;28;20298;-54
2022/12/12 07:03:02;;;;;;;;;;;-5.40;99.90;;;;;;5041882;28;19909;-57
2022/12/12 07:05:27;;;;;;;;;;;-5.40;99.90;;;;;;5049368;28;19915;-56
2022/12/12 07:07:53;;;;;;;;;;;-5.40;99.90;;;;;;5047558;28;19913;-55
2022/12/12 07:10:18;;;;;;;;;;;-5.40;99.90;;;;;;5049231;28;20494;-57
2022/12/12 07:12:44;;;;;;;;;;;-5.40;99.90;;;;;;5050089;28;19909;-58
2022/12/12 07:15:10;;;;;;;;;;;-5.40;99.90;;;;;;5048650;28;19937;-54
2022/12/12 07:17:36;;;;;;;;;;;-5.50;99.90;;;;;;5051564;28;19959;-57
2022/12/12 07:20:01;;;;;;;;;;;-5.50;99.90;;;;;;5061705;28;20034;-53
2022/12/12 07:22:27;;;;;;;;;;;-5.50;99.90;;;;;;5043338;28;20159;-53
2022/12/12 07:24:52;;;;;;;;;;;-5.50;99.90;;;;;;5051679;28;19912;-57
2022/12/12 07:27:18;;;;;;;;;;;-5.50;99.90;;;;;;5050294;28;19939;-57
2022/12/12 07:29:44;;;;;;;;;;;-5.50;99.90;;;;;;5049488;28;19947;-52
2022/12/12 07:32:09;;;;;;;;;;;-5.60;99.90;;;;;;5044944;28;20038;-56
2022/12/12 07:34:35;;;;;;;;;;;-5.60;99.90;;;;;;5050391;28;19967;-56
2022/12/12 07:37:00;;;;;;;;;;;-5.60;99.90;;;;;;5047585;28;20042;-57
2022/12/12 07:39:28;;;;;;;;;;;-5.60;99.90;;;;;;5048617;28;19971;-56
2022/12/12 07:41:53;;;;;;;;;;;-5.60;99.90;;;;;;5040970;28;20268;-56
2022/12/12 07:44:19;;;;;;;;;;;-5.60;99.90;;;;;;5046380;28;19919;-57
2022/12/12 07:46:44;;;;;;;;;;;-5.60;99.90;;;;;;5046843;28;19923;-55
2022/12/12 07:49:10;;;;;;;;;;;-5.70;99.90;;;;;;5047049;28;20425;-56
2022/12/12 07:51:37;;;;;;;;;;;-5.70;99.90;;;;;;5040965;28;19951;-55
2022/12/12 07:54:03;;;;;;;;;;;-5.70;99.90;;;;;;5050583;28;20386;-56
2022/12/12 07:56:29;;;;;;;;;;;-5.70;99.90;;;;;;5051128;28;19936;-53
2022/12/12 07:58:54;;;;;;;;;;;-5.70;99.90;;;;;;5049944;28;19996;-53
2022/12/12 08:01:21;;;;;;;;;;;-5.70;99.90;;;;;;5050706;28;19909;-57
2022/12/12 08:03:47;;;;;;;;;;;-5.70;99.90;;;;;;5047182;28;19913;-57
2022/12/12 08:06:15;;;;;;;;;;;-5.70;99.90;;;;;;5049150;28;19934;-57
2022/12/12 08:08:40;;;;;;;;;;;-5.70;99.90;;;;;;5046266;28;19916;-56
2022/12/12 08:11:09;;;;;;;;;;;-5.60;99.90;;;;;;5048800;28;19909;-56
2022/12/12 08:13:36;;;;;;;;;;;-5.60;99.90;;;;;;5045396;28;20428;-53
2022/12/12 08:16:01;;;;;;;;;;;-5.60;99.90;;;;;;5047625;28;20034;-57
2022/12/12 08:18:27;;;;;;;;;;;-5.60;99.90;;;;;;5049874;28;20015;-56
2022/12/12 08:20:53;;;;;;;;;;;-5.50;99.90;;;;;;5046703;28;20374;-58
2022/12/12 08:23:18;;;;;;;;;;;-5.40;99.90;;;;;;5048612;28;19909;-57
2022/12/12 08:25:44;;;;;;;;;;;-5.40;99.90;;;;;;5044455;28;19913;-56
2022/12/12 08:28:09;;;;;;;;;;;-5.30;99.90;;;;;;5050489;28;20393;-56
2022/12/12 08:30:35;;;;;;;;;;;-5.30;99.90;;;;;;5045174;28;19956;-55
2022/12/12 08:33:00;;;;;;;;;;;-5.30;99.90;;;;;;5047061;28;20003;-57
2022/12/12 08:35:27;;;;;;;;;;;-5.30;99.90;;;;;;5049103;28;19913;-56
2022/12/12 08:37:53;;;;;;;;;;;-5.30;99.90;;;;;;5044796;28;19919;-53
2022/12/12 08:40:18;;;;;;;;;;;-5.30;99.90;;;;;;5048600;28;20004;-57
2022/12/12 08:42:44;;;;;;;;;;;-5.20;99.90;;;;;;5050152;28;20144;-55
2022/12/12 08:45:10;;;;;;;;;;;-5.20;99.90;;;;;;5047976;28;20378;-56
2022/12/12 08:47:35;;;;;;;;;;;-5.20;99.90;;;;;;5066313;22;19929;-56
2022/12/12 08:50:01;;;;;;;;;;;-5.20;99.90;;;;;;5014962;28;20408;-53
2022/12/12 08:52:26;;;;;;;;;;;-5.20;99.90;;;;;;5010915;28;20016;-54
2022/12/12 08:54:52;;;;;;;;;;;-5.20;99.90;;;;;;5007175;28;19917;-55
2022/12/12 08:57:17;;;;;;;;;;;-5.30;99.90;;;;;;5013211;28;19948;-51
2022/12/12 08:59:43;;;;;;;;;;;-5.30;99.90;;;;;;5014499;28;19913;-52
2022/12/12 09:02:11;;;;;;;;;;;-5.30;99.90;;;;;;5010512;28;19909;-54
2022/12/12 09:04:36;;;;;;;;;;;-5.30;99.90;;;;;;5014212;28;20378;-51
2022/12/12 09:07:02;;;;;;;;;;;-5.30;99.90;;;;;;5009082;28;20142;-55
2022/12/12 09:09:27;;;;;;;;;;;-5.30;99.90;;;;;;5016950;28;19992;-50
2022/12/12 09:11:53;;;;;;;;;;;-5.30;99.90;;;;;;4992971;28;19912;-52
2022/12/12 09:14:18;;;;;;;;;;;-5.30;99.90;;;;;;5017124;28;20406;-52
2022/12/12 09:16:44;;;;;;;;;;;-5.30;99.90;;;;;;5011623;28;19941;-54
2022/12/12 09:19:09;;;;;;;;;;;-5.30;99.90;;;;;;4996845;28;19913;-52
2022/12/12 09:21:35;;;;;;;;;;;-5.20;99.90;;;;;;4997068;28;19987;-53
2022/12/12 09:24:00;;;;;;;;;;;-5.20;99.90;;;;;;5013761;28;19913;-56
2022/12/12 09:26:26;;;;;;;;;;;-5.20;99.90;;;;;;5014342;28;19914;-52
2022/12/12 09:28:51;;;;;;;;;;;-5.10;99.90;;;;;;5009664;28;19927;-57
2022/12/12 09:31:17;;;;;;;;;;;-5.10;99.90;;;;;;5010785;28;19910;-55
2022/12/12 09:33:42;;;;;;;;;;;-5.00;99.90;;;;;;5009734;28;19909;-52
2022/12/12 09:36:08;;;;;;;;;;;-4.90;99.90;;;;;;5009456;28;19909;-52
2022/12/12 09:38:34;;;;;;;;;;;-4.80;99.90;;;;;;5010262;28;20176;-53
2022/12/12 09:41:09;;;;;;;;;;;-4.80;99.90;;;;;;5017202;28;19952;-56
2022/12/12 09:43:42;;;;;;;;;;;-4.60;99.90;;;;;;5008661;28;20114;-57
2022/12/12 09:46:37;;;;;;;;;;;-4.50;99.90;;;;;;4990669;28;19984;-56
2022/12/12 09:49:10;;;;;;;;;;;-4.50;99.90;;;;;;4992536;28;19917;-53
2022/12/12 09:51:36;;;;;;;;;;;-4.40;99.90;;;;;;5009152;28;19956;-56
2022/12/12 09:54:01;;;;;;;;;;;-4.40;99.90;;;;;;5014454;28;19913;-52
2022/12/12 09:56:27;;;;;;;;;;;-4.40;99.90;;;;;;5013248;28;19914;-53
2022/12/12 09:59:19;;;;;;;;;;;-4.40;99.90;;;;;;5009665;28;19918;-55
2022/12/12 10:02:04;;;;;;;;;;;-4.40;99.90;;;;;;4978297;28;19910;-55
2022/12/12 10:04:42;;;;;;;;;;;-4.40;99.90;;;;;;5012424;28;19953;-54
2022/12/12 10:07:18;;;;;;;;;;;-4.30;99.90;;;;;;5003796;28;19917;-52
2022/12/12 10:09:43;;;;;;;;;;;-4.30;99.90;;;;;;5008237;28;19913;-56
2022/12/12 10:12:11;;;;;;;;;;;-4.20;99.90;;;;;;5009852;28;20388;-53
2022/12/12 10:14:49;;;;;;;;;;;-4.20;99.90;;;;;;5011499;28;20257;-54
2022/12/12 10:17:16;;;;;;;;;;;-4.10;99.90;;;;;;5010365;28;19913;-55
2022/12/12 10:19:46;;;;;;;;;;;-4.00;99.90;;;;;;4992008;28;19913;-51
2022/12/12 10:22:20;;;;;;;;;;;-4.00;99.90;;;;;;5009979;28;19914;-54
2022/12/12 10:24:50;;;;;;;;;;;-4.00;99.90;;;;;;5012865;28;19920;-55
2022/12/12 10:27:16;;;;;;;;;;;-3.90;99.90;;;;;;5009243;28;20384;-55
2022/12/12 10:29:45;;;;;;;;;;;-3.80;99.90;;;;;;5009186;28;19928;-55
2022/12/12 10:32:17;;;;;;;;;;;-3.80;99.90;;;;;;5010044;28;20422;-54
2022/12/12 10:34:45;;;;;;;;;;;-3.80;99.90;;;;;;5008231;28;19921;-54
2022/12/12 10:37:17;;;;;;;;;;;-3.70;99.90;;;;;;5010032;28;19910;-54
2022/12/12 10:39:51;;;;;;;;;;;-3.70;99.90;;;;;;5011666;28;19945;-57
2022/12/12 10:42:19;;;;;;;;;;;-3.60;99.90;;;;;;5009726;28;20379;-54
2022/12/12 10:44:45;;;;;;;;;;;-3.60;99.90;;;;;;5010342;28;20307;-56
2022/12/12 10:47:11;;;;;;;;;;;-3.50;99.90;;;;;;5015015;28;19918;-56
2022/12/12 10:49:37;;;;;;;;;;;-3.50;99.90;;;;;;5009343;28;20273;-56
2022/12/12 10:52:05;;;;;;;;;;;-3.40;99.90;;;;;;5010575;28;19925;-55
2022/12/12 10:54:32;;;;;;;;;;;-3.40;99.90;;;;;;5009156;28;19909;-55
2022/12/12 10:57:09;;;;;;;;;;;-3.30;99.90;;;;;;5009597;28;20292;-56
2022/12/12 10:59:38;;;;;;;;;;;-3.30;99.90;;;;;;5009224;28;19910;-55
2022/12/12 11:02:08;;;;;;;;;;;-3.30;99.90;;;;;;5014730;28;19913;-57
2022/12/12 11:04:36;;;;;;;;;;;-3.20;99.90;;;;;;5010472;28;20372;-55
2022/12/12 11:07:01;;;;;;;;;;;-3.20;99.90;;;;;;5012777;28;19968;-55
2022/12/12 11:09:27;;;;;;;;;;;-3.20;99.90;;;;;;5012423;28;19917;-57
2022/12/12 11:12:00;;;;;;;;;;;-3.20;99.90;;;;;;4995280;28;19917;-55
2022/12/12 11:14:28;;;;;;;;;;;-3.10;99.90;;;;;;5014985;28;19917;-56
2022/12/12 11:16:53;;;;;;;;;;;-3.10;99.90;;;;;;5014500;28;19964;-55
2022/12/12 11:19:20;;;;;;;;;;;-3.10;99.90;;;;;;5013474;28;20439;-55
2022/12/12 11:21:46;;;;;;;;;;;-3.10;99.90;;;;;;5013150;28;19913;-56
2022/12/12 11:24:13;;;;;;;;;;;-3.00;99.90;;;;;;5012448;28;20004;-55
2022/12/12 11:26:41;;;;;;;;;;;-3.10;99.90;;;;;;5012441;28;19914;-57
2022/12/12 11:29:24;;;;;;;;;;;-3.10;99.90;;;;;;5014996;28;19968;-57
2022/12/12 11:31:49;;;;;;;;;;;-3.10;99.90;;;;;;5013242;28;19935;-53
2022/12/12 11:34:15;;;;;;;;;;;-3.10;99.90;;;;;;5013285;28;19925;-56
2022/12/12 11:36:41;;;;;;;;;;;-3.00;99.90;;;;;;5010728;28;19909;-55
2022/12/12 11:39:14;;;;;;;;;;;-3.00;99.90;;;;;;5013600;28;20160;-55
2022/12/12 11:41:57;;;;;;;;;;;-3.00;99.90;;;;;;5022942;28;19913;-56
2022/12/12 11:44:26;;;;;;;;;;;-3.00;99.90;;;;;;5010510;28;19967;-57
2022/12/12 11:46:51;;;;;;;;;;;-2.90;99.90;;;;;;5011896;28;19940;-56
2022/12/12 11:49:19;;;;;;;;;;;-2.90;99.90;;;;;;5011718;28;19917;-57
2022/12/12 11:51:44;;;;;;;;;;;-2.90;99.90;;;;;;5011797;28;19914;-56
2022/12/12 11:54:14;;;;;;;;;;;-2.90;99.90;;;;;;5014930;28;20327;-58
2022/12/12 11:56:42;;;;;;;;;;;-2.90;99.90;;;;;;5011822;28;19909;-58
2022/12/12 11:59:07;;;;;;;;;;;-2.90;99.90;;;;;;5010906;28;20383;-56
2022/12/12 12:01:40;;;;;;;;;;;-2.90;99.90;;;;;;5010303;28;19960;-55
2022/12/12 12:04:22;;;;;;;;;;;-2.90;99.90;;;;;;5013271;28;19960;-57
2022/12/12 12:06:53;;;;;;;;;;;-2.90;99.90;;;;;;4993694;28;19925;-58
2022/12/12 12:09:45;;;;;;;;;;;-2.90;99.90;;;;;;5011237;28;19956;-56
2022/12/12 12:12:14;;;;;;;;;;;-3.00;99.90;;;;;;4981284;28;20011;-56
2022/12/12 12:14:39;;;;;;;;;;;-3.00;99.90;;;;;;5014611;28;19913;-56
2022/12/12 12:17:11;;;;;;;;;;;-3.00;99.90;;;;;;5011565;28;19959;-58
2022/12/12 12:19:39;;;;;;;;;;;-3.00;99.90;;;;;;5021484;28;19928;-55
2022/12/12 12:22:16;;;;;;;;;;;-3.10;99.90;;;;;;5010221;28;20371;-57
2022/12/12 12:24:44;;;;;;;;;;;-3.10;99.90;;;;;;5011354;28;19914;-55
2022/12/12 12:27:28;;;;;;;;;;;-3.10;99.90;;;;;;5011252;28;19995;-55
2022/12/12 12:30:28;;;;;;;;;;;-3.00;99.90;;;;;;5004731;28;20117;-55
2022/12/12 12:32:58;;;;;;;;;;;-3.00;99.90;;;;;;4964709;28;20298;-56
2022/12/12 12:35:24;;;;;;;;;;;-2.90;99.90;;;;;;5017297;28;20299;-57
2022/12/12 12:37:58;;;;;;;;;;;-2.90;99.90;;;;;;5012668;28;19913;-57
2022/12/12 12:40:24;;;;;;;;;;;-2.90;99.90;;;;;;5011819;28;19924;-57
2022/12/12 12:42:55;;;;;;;;;;;-2.90;99.90;;;;;;5011382;28;19910;-56
2022/12/12 12:45:40;;;;;;;;;;;-2.90;99.90;;;;;;5009656;28;20340;-57
2022/12/12 12:48:14;;;;;;;;;;;-2.90;99.90;;;;;;5004814;28;20319;-56
2022/12/12 12:50:42;;;;;;;;;;;-3.10;99.90;;;;;;5011833;28;19909;-56
2022/12/12 12:53:26;;;;;;;;;;;-3.10;99.90;;;;;;5010836;28;20372;-57
2022/12/12 12:55:54;;;;;;;;;;;-3.10;99.90;;;;;;5010748;28;19909;-56
2022/12/12 12:58:21;;;;;;;;;;;-3.10;99.90;;;;;;5010638;28;19920;-54
2022/12/12 13:01:10;;;;;;;;;;;-3.10;99.90;;;;;;5011115;28;19963;-56
2022/12/12 13:03:39;;;;;;;;;;;-3.20;99.90;;;;;;4997632;28;19917;-57
2022/12/12 13:06:09;;;;;;;;;;;-3.10;99.90;;;;;;5012715;28;19917;-57
2022/12/12 13:08:59;;;;;;;;;;;-3.00;99.90;;;;;;5010621;28;20376;-54
2022/12/12 13:11:34;;;;;;;;;;;-3.10;99.90;;;;;;5013321;28;20494;-55
2022/12/12 13:14:11;;;;;;;;;;;-3.10;99.90;;;;;;4992865;28;19915;-55
2022/12/12 13:16:38;;;;;;;;;;;-3.10;99.90;;;;;;5010818;28;19909;-56
2022/12/12 13:19:12;;;;;;;;;;;-3.10;99.90;;;;;;4993007;28;19976;-55
2022/12/12 13:21:42;;;;;;;;;;;-3.10;99.90;;;;;;5010853;28;19921;-55
2022/12/12 13:24:16;;;;;;;;;;;-3.10;99.90;;;;;;5005175;28;19988;-58
2022/12/12 13:26:59;;;;;;;;;;;-3.10;99.90;;;;;;4992110;28;19964;-56
2022/12/12 13:29:28;;;;;;;;;;;-3.00;99.90;;;;;;5007844;28;20135;-54
2022/12/12 13:32:10;;;;;;;;;;;-3.00;99.90;;;;;;5004668;28;19920;-56
2022/12/12 13:34:42;;;;;;;;;;;-3.00;99.90;;;;;;5014963;28;19918;-55
2022/12/12 13:37:07;;;;;;;;;;;-3.00;99.90;;;;;;5009927;28;20000;-56
2022/12/12 13:39:34;;;;;;;;;;;-3.00;99.90;;;;;;5010310;28;20132;-58
2022/12/12 13:42:01;;;;;;;;;;;-3.00;99.90;;;;;;5008421;28;19917;-57
2022/12/12 13:44:34;;;;;;;;;;;-3.00;99.90;;;;;;5009376;28;19913;-57
2022/12/12 13:47:00;;;;;;;;;;;-3.00;99.90;;;;;;5001366;28;19914;-56
2022/12/12 13:49:37;;;;;;;;;;;-3.00;99.90;;;;;;5010852;28;20212;-55
2022/12/12 13:52:22;;;;;;;;;;;-3.00;99.90;;;;;;5007486;28;20055;-56
2022/12/12 13:54:48;;;;;;;;;;;-3.00;99.90;;;;;;5007484;28;19925;-56
2022/12/12 13:57:21;;;;;;;;;;;-3.00;99.90;;;;;;5011790;28;19913;-57
2022/12/12 13:59:52;;;;;;;;;;;-3.00;99.90;;;;;;5009915;28;19917;-55
2022/12/12 14:02:32;;;;;;;;;;;-3.00;99.90;;;;;;5016624;28;19917;-55
2022/12/12 14:05:15;;;;;;;;;;;-3.10;99.90;;;;;;5006123;28;19909;-56
2022/12/12 14:07:59;;;;;;;;;;;-3.20;99.90;;;;;;5010336;28;19925;-56
2022/12/12 14:10:24;;;;;;;;;;;-3.20;99.90;;;;;;5010227;28;19910;-54
2022/12/12 14:12:50;;;;;;;;;;;-3.20;99.90;;;;;;5009960;28;20012;-56
2022/12/12 14:15:26;;;;;;;;;;;-3.20;99.90;;;;;;5009208;28;20498;-55
2022/12/12 14:17:59;;;;;;;;;;;-3.30;99.90;;;;;;5009347;28;20295;-57
2022/12/12 14:20:28;;;;;;;;;;;-3.30;99.90;;;;;;5009170;28;20459;-58
2022/12/12 14:22:53;;;;;;;;;;;-3.30;99.90;;;;;;5002471;28;19920;-55
2022/12/12 14:25:27;;;;;;;;;;;-3.30;99.90;;;;;;5009240;28;19914;-58
2022/12/12 14:27:53;;;;;;;;;;;-3.40;99.90;;;;;;5014840;28;19925;-58
2022/12/12 14:30:32;;;;;;;;;;;-3.40;99.90;;;;;;5008187;28;19975;-58
2022/12/12 14:33:05;;;;;;;;;;;-3.40;99.90;;;;;;5010095;28;19909;-57
2022/12/12 14:35:31;;;;;;;;;;;-3.50;99.90;;;;;;5010438;28;19910;-56
2022/12/12 14:38:07;;;;;;;;;;;-3.50;99.90;;;;;;5020754;28;19920;-56